Time;durP1;ratioP1;P1;durP2;ratioP2;P2;SDS_P1;SDS_P2;PMS_P1;PMS_P2;Temp;Humidity;BMP_temperature;BMP_pressure;BME280_temperature;BME280_humidity;BME280_pressure;Samples;Min_cycle;Max_cycle;Signal;HPM_P1;HPM_P2
2021/09/23 00:01:02;;;;;;;29.27;23.50;;;14.30;99.90;;;;;;4993770;28;20574;-67
2021/09/23 00:06:15;;;;;;;30.03;25.77;;;14.30;99.90;;;;;;4986485;28;20656;-67
2021/09/23 00:08:43;;;;;;;27.50;24.53;;;14.20;99.90;;;;;;4991906;28;20240;-67
2021/09/23 00:11:11;;;;;;;29.60;25.37;;;14.20;99.90;;;;;;4995416;28;20303;-67
2021/09/23 00:13:39;;;;;;;28.13;24.93;;;14.20;99.90;;;;;;4994650;28;20575;-67
2021/09/23 00:16:08;;;;;;;28.03;24.77;;;14.20;99.90;;;;;;4996930;28;20249;-67
2021/09/23 00:18:37;;;;;;;28.80;24.20;;;14.20;99.90;;;;;;4994809;28;20332;-67
2021/09/23 00:21:06;;;;;;;28.00;24.87;;;14.20;99.90;;;;;;4997909;28;20756;-68
2021/09/23 00:23:34;;;;;;;29.83;26.00;;;14.20;99.90;;;;;;4991749;28;20744;-67
2021/09/23 00:26:03;;;;;;;29.50;25.57;;;14.10;99.90;;;;;;4995022;28;20240;-67
2021/09/23 00:28:31;;;;;;;28.20;25.33;;;14.10;99.90;;;;;;4987590;28;20245;-67
2021/09/23 00:30:59;;;;;;;33.87;27.53;;;14.10;99.90;;;;;;4991551;28;20267;-67
2021/09/23 00:33:28;;;;;;;29.50;26.40;;;14.10;99.90;;;;;;4991894;28;20236;-67
2021/09/23 00:35:57;;;;;;;28.67;25.57;;;14.10;99.90;;;;;;4996424;28;20657;-67
2021/09/23 00:38:25;;;;;;;28.13;25.10;;;14.10;99.90;;;;;;4995265;28;20237;-67
2021/09/23 00:40:54;;;;;;;28.83;25.80;;;14.00;99.90;;;;;;4998114;28;20269;-67
2021/09/23 00:43:22;;;;;;;29.87;26.80;;;14.00;99.90;;;;;;4992367;28;20236;-67
2021/09/23 00:45:50;;;;;;;30.37;27.00;;;14.00;99.90;;;;;;4992539;28;20303;-67
2021/09/23 00:48:19;;;;;;;32.93;28.90;;;14.00;99.90;;;;;;4996383;28;20242;-67
2021/09/23 00:50:48;;;;;;;32.03;28.10;;;14.00;99.90;;;;;;4988648;28;20249;-68
2021/09/23 00:53:20;;;;;;;32.13;27.93;;;14.00;99.90;;;;;;4991688;28;20244;-66
2021/09/23 00:55:50;;;;;;;30.80;27.40;;;13.90;99.90;;;;;;4994044;28;20229;-67
2021/09/23 00:58:22;;;;;;;32.50;28.90;;;13.90;99.90;;;;;;4991039;28;20230;-67
2021/09/23 01:00:59;;;;;;;32.77;29.37;;;13.90;99.90;;;;;;4980945;28;20245;-67
2021/09/23 01:03:32;;;;;;;31.27;28.10;;;13.90;99.90;;;;;;4988730;28;20250;-68
2021/09/23 01:06:03;;;;;;;33.13;28.73;;;13.80;99.90;;;;;;5012656;28;20299;-67
2021/09/23 01:08:32;;;;;;;31.30;27.90;;;13.90;99.90;;;;;;4997054;28;20236;-68
2021/09/23 01:11:01;;;;;;;30.63;27.43;;;13.80;99.90;;;;;;4997781;28;20266;-67
2021/09/23 01:13:34;;;;;;;30.70;27.37;;;13.80;99.90;;;;;;4994428;28;20737;-67
2021/09/23 01:16:11;;;;;;;29.63;26.50;;;13.80;99.90;;;;;;5007526;28;20436;-67
2021/09/23 01:19:00;;;;;;;29.37;26.40;;;13.80;99.90;;;;;;5009783;28;20241;-68
2021/09/23 01:21:33;;;;;;;31.50;28.13;;;13.80;99.90;;;;;;4978090;28;20598;-67
2021/09/23 01:24:05;;;;;;;31.53;28.23;;;13.80;99.90;;;;;;4991511;28;20333;-67
2021/09/23 01:26:33;;;;;;;31.23;27.90;;;13.70;99.90;;;;;;4987185;28;20246;-67
2021/09/23 01:29:16;;;;;;;30.70;27.40;;;13.80;99.90;;;;;;4999739;28;20646;-67
2021/09/23 01:31:52;;;;;;;30.57;27.37;;;13.70;99.90;;;;;;5002621;28;20237;-68
2021/09/23 01:34:21;;;;;;;32.73;29.23;;;13.70;99.90;;;;;;4988613;28;20232;-68
2021/09/23 01:36:51;;;;;;;31.50;28.20;;;13.70;99.90;;;;;;5004350;28;20249;-67
2021/09/23 01:39:20;;;;;;;32.43;29.03;;;13.70;99.90;;;;;;4994850;28;20257;-66
2021/09/23 01:41:49;;;;;;;35.27;28.67;;;13.70;99.90;;;;;;4978030;28;20242;-67
2021/09/23 01:44:23;;;;;;;32.47;28.97;;;13.70;99.90;;;;;;4997734;28;20275;-68
2021/09/23 01:46:52;;;;;;;33.13;28.93;;;13.70;99.90;;;;;;5014030;28;20652;-67
2021/09/23 01:49:25;;;;;;;35.73;29.47;;;13.70;99.90;;;;;;4990757;28;20266;-66
2021/09/23 01:51:55;;;;;;;33.23;29.63;;;13.70;99.90;;;;;;5001720;28;20600;-67
2021/09/23 01:54:24;;;;;;;38.40;32.70;;;13.70;99.90;;;;;;4991838;28;20317;-67
2021/09/23 01:56:54;;;;;;;35.03;31.23;;;13.60;99.90;;;;;;5018372;28;20787;-67
2021/09/23 01:59:24;;;;;;;36.87;32.80;;;13.70;99.90;;;;;;4985404;28;20323;-67
2021/09/23 02:01:59;;;;;;;38.73;32.57;;;13.70;99.90;;;;;;4983434;28;20718;-68
2021/09/23 02:04:28;;;;;;;37.33;31.43;;;13.60;99.90;;;;;;4993814;28;20234;-67
2021/09/23 02:06:58;;;;;;;37.10;30.70;;;13.60;99.90;;;;;;5003998;28;20246;-67
2021/09/23 02:09:26;;;;;;;33.73;30.03;;;13.60;99.90;;;;;;4991123;28;20599;-67
2021/09/23 02:11:54;;;;;;;38.03;32.43;;;13.60;99.90;;;;;;5008510;28;20702;-67
2021/09/23 02:14:23;;;;;;;36.83;32.27;;;13.50;99.90;;;;;;4990243;28;20265;-67
2021/09/23 02:16:51;;;;;;;38.37;33.60;;;13.50;99.90;;;;;;5009307;28;20245;-67
2021/09/23 02:19:46;;;;;;;39.70;31.90;;;13.50;99.90;;;;;;4979510;28;20321;-68
2021/09/23 02:22:16;;;;;;;40.33;32.87;;;13.50;99.90;;;;;;5003183;28;20245;-67
2021/09/23 02:24:49;;;;;;;37.90;31.60;;;13.50;99.90;;;;;;4987986;28;20387;-68
2021/09/23 02:27:17;;;;;;;37.83;32.53;;;13.50;99.90;;;;;;4986341;28;20234;-67
2021/09/23 02:29:46;;;;;;;38.63;32.10;;;13.50;99.90;;;;;;5000168;28;20718;-68
2021/09/23 02:32:14;;;;;;;38.03;32.80;;;13.50;99.90;;;;;;5000459;28;20237;-67
2021/09/23 02:34:42;;;;;;;37.33;31.97;;;13.50;99.90;;;;;;4990405;28;20238;-67
2021/09/23 02:37:10;;;;;;;40.33;33.40;;;13.50;99.90;;;;;;4992935;28;20246;-67
2021/09/23 02:39:40;;;;;;;35.70;31.87;;;13.50;99.90;;;;;;4992622;28;20295;-67
2021/09/23 02:42:08;;;;;;;37.90;31.70;;;13.50;99.90;;;;;;5010227;28;20236;-68
2021/09/23 02:44:36;;;;;;;38.70;32.40;;;13.50;99.90;;;;;;4988033;28;20864;-68
2021/09/23 02:47:05;;;;;;;38.13;31.67;;;13.50;99.90;;;;;;5009444;28;20247;-67
2021/09/23 02:49:33;;;;;;;37.77;32.60;;;13.50;99.90;;;;;;4998353;28;20646;-66
2021/09/23 02:52:01;;;;;;;39.40;32.97;;;13.60;99.90;;;;;;5010525;28;20240;-67
2021/09/23 02:54:29;;;;;;;38.73;31.47;;;13.50;99.90;;;;;;4986012;28;20229;-67
2021/09/23 02:56:59;;;;;;;37.77;31.40;;;13.60;99.90;;;;;;4997846;28;20264;-67
2021/09/23 02:59:27;;;;;;;38.80;31.10;;;13.50;99.90;;;;;;5006956;28;20257;-67
2021/09/23 03:01:55;;;;;;;38.97;32.10;;;13.50;99.90;;;;;;4976809;28;20833;-67
2021/09/23 03:04:24;;;;;;;38.93;32.37;;;13.40;99.90;;;;;;5008739;28;20512;-67
2021/09/23 03:06:52;;;;;;;38.73;32.13;;;13.40;99.90;;;;;;4997231;28;20245;-68
2021/09/23 03:09:20;;;;;;;39.97;33.50;;;13.40;99.90;;;;;;4993652;28;20237;-67
2021/09/23 03:11:48;;;;;;;41.97;34.37;;;13.40;99.90;;;;;;4982796;28;20314;-67
2021/09/23 03:14:18;;;;;;;40.83;32.90;;;13.40;99.90;;;;;;4994880;28;20230;-67
2021/09/23 03:16:46;;;;;;;42.73;32.70;;;13.30;99.90;;;;;;4988632;28;21169;-67
2021/09/23 03:19:14;;;;;;;41.20;33.00;;;13.30;99.90;;;;;;4992859;28;20240;-67
2021/09/23 03:21:43;;;;;;;38.63;32.23;;;13.30;99.90;;;;;;4996914;28;20248;-67
2021/09/23 03:24:11;;;;;;;39.47;31.93;;;13.30;99.90;;;;;;4991882;28;20701;-67
2021/09/23 03:26:39;;;;;;;43.67;33.27;;;13.30;99.90;;;;;;4994557;28;20309;-67
2021/09/23 03:29:08;;;;;;;42.40;33.97;;;13.30;99.90;;;;;;5014161;28;20253;-67
2021/09/23 03:31:39;;;;;;;40.83;31.70;;;13.30;99.90;;;;;;4988607;28;20240;-67
2021/09/23 03:34:08;;;;;;;37.57;31.13;;;13.30;99.90;;;;;;4994553;28;20243;-67
2021/09/23 03:36:36;;;;;;;40.43;32.77;;;13.30;99.90;;;;;;4992201;28;20237;-67
2021/09/23 03:39:05;;;;;;;43.33;32.90;;;13.30;99.90;;;;;;5001372;28;20319;-67
2021/09/23 03:41:35;;;;;;;40.97;31.13;;;13.30;99.90;;;;;;4989855;28;20376;-67
2021/09/23 03:44:03;;;;;;;37.63;30.83;;;13.20;99.90;;;;;;5009553;28;20249;-67
2021/09/23 03:46:33;;;;;;;40.07;31.40;;;13.30;99.90;;;;;;4996086;28;20746;-67
2021/09/23 03:49:03;;;;;;;44.20;33.13;;;13.20;99.90;;;;;;5010891;28;20772;-67
2021/09/23 03:51:31;;;;;;;41.50;31.60;;;13.20;99.90;;;;;;4979889;28;20741;-68
2021/09/23 03:54:00;;;;;;;43.23;32.50;;;13.20;99.90;;;;;;4992224;28;20238;-67
2021/09/23 03:56:28;;;;;;;43.37;32.10;;;13.30;99.90;;;;;;4998711;28;20237;-67
2021/09/23 03:58:57;;;;;;;40.10;33.17;;;13.30;99.90;;;;;;4992068;28;20268;-67
2021/09/23 04:01:25;;;;;;;44.63;31.73;;;13.30;99.90;;;;;;4993758;28;20713;-67
2021/09/23 04:03:54;;;;;;;40.90;31.03;;;13.20;99.90;;;;;;4992741;28;20233;-67
2021/09/23 04:06:24;;;;;;;41.93;31.90;;;13.20;99.90;;;;;;4983024;28;20267;-67
2021/09/23 04:08:52;;;;;;;44.40;32.30;;;13.10;99.90;;;;;;5011122;28;20245;-68
2021/09/23 04:11:21;;;;;;;42.97;32.53;;;13.10;99.90;;;;;;4990408;28;20233;-67
2021/09/23 04:13:50;;;;;;;42.00;33.33;;;13.10;99.90;;;;;;5015966;28;20242;-67
2021/09/23 04:16:19;;;;;;;41.63;32.07;;;13.10;99.90;;;;;;4989401;28;20706;-66
2021/09/23 04:18:48;;;;;;;42.07;31.47;;;13.10;99.90;;;;;;5006009;28;20244;-66
2021/09/23 04:21:16;;;;;;;43.90;32.10;;;13.10;99.90;;;;;;4991767;28;20320;-67
2021/09/23 04:23:46;;;;;;;40.80;31.73;;;13.10;99.90;;;;;;4991819;28;20240;-67
2021/09/23 04:26:15;;;;;;;47.63;32.70;;;13.10;99.90;;;;;;5006873;28;20697;-68
2021/09/23 04:28:43;;;;;;;44.10;33.40;;;13.10;99.90;;;;;;4994081;28;20237;-67
2021/09/23 04:31:12;;;;;;;40.90;32.70;;;13.10;99.90;;;;;;4985816;28;20236;-67
2021/09/23 04:33:40;;;;;;;43.20;32.27;;;13.10;99.90;;;;;;4979225;28;20256;-67
2021/09/23 04:36:08;;;;;;;41.83;32.10;;;13.10;99.90;;;;;;5003315;28;20243;-67
2021/09/23 04:38:36;;;;;;;45.77;33.07;;;13.10;99.90;;;;;;4989098;28;20725;-68
2021/09/23 04:41:06;;;;;;;43.47;32.10;;;13.10;99.90;;;;;;4996552;28;20279;-67
2021/09/23 04:43:36;;;;;;;43.50;33.53;;;13.10;99.90;;;;;;4998912;28;20244;-67
2021/09/23 04:46:04;;;;;;;42.87;32.33;;;13.10;99.90;;;;;;4991547;28;20249;-67
2021/09/23 04:48:33;;;;;;;44.33;31.33;;;13.20;99.90;;;;;;5005195;28;20709;-67
2021/09/23 04:51:01;;;;;;;42.43;31.23;;;13.20;99.90;;;;;;4999880;28;20246;-67
2021/09/23 04:53:30;;;;;;;45.00;32.90;;;13.20;99.90;;;;;;4981629;28;20240;-67
2021/09/23 04:56:03;;;;;;;45.73;32.60;;;13.10;99.90;;;;;;4984842;28;20255;-67
2021/09/23 04:58:34;;;;;;;46.70;32.93;;;13.20;99.90;;;;;;4990329;28;20229;-67
2021/09/23 05:01:02;;;;;;;43.07;32.00;;;13.20;99.90;;;;;;4979071;28;20570;-67
2021/09/23 05:03:31;;;;;;;44.97;31.60;;;13.20;99.90;;;;;;4986163;28;20251;-66
2021/09/23 05:06:00;;;;;;;47.10;32.47;;;13.20;99.90;;;;;;4988158;28;20241;-68
2021/09/23 05:08:28;;;;;;;40.67;31.40;;;13.20;99.90;;;;;;4976752;28;20262;-67
2021/09/23 05:10:56;;;;;;;43.80;32.73;;;13.10;99.90;;;;;;4988204;28;20275;-67
2021/09/23 05:13:24;;;;;;;44.90;32.30;;;13.10;99.90;;;;;;4985455;28;20767;-67
2021/09/23 05:15:54;;;;;;;43.60;31.50;;;13.10;99.90;;;;;;4988734;28;20240;-67
2021/09/23 05:18:22;;;;;;;41.90;32.03;;;13.10;99.90;;;;;;4986305;28;20244;-67
2021/09/23 05:20:50;;;;;;;43.77;31.33;;;13.10;99.90;;;;;;4986889;28;20843;-67
2021/09/23 05:23:19;;;;;;;44.17;31.50;;;13.10;99.90;;;;;;4991064;28;20241;-67
2021/09/23 05:25:47;;;;;;;41.90;30.20;;;13.10;99.90;;;;;;4989242;28;20265;-66
2021/09/23 05:28:15;;;;;;;45.10;31.63;;;13.10;99.90;;;;;;4986712;28;20240;-67
2021/09/23 05:30:43;;;;;;;42.40;30.90;;;13.10;99.90;;;;;;4979604;28;20293;-67
2021/09/23 05:33:13;;;;;;;42.13;31.77;;;13.10;99.90;;;;;;4978029;28;20241;-67
2021/09/23 05:35:41;;;;;;;45.93;32.57;;;13.20;99.90;;;;;;4987601;28;20250;-67
2021/09/23 05:38:10;;;;;;;45.67;31.53;;;13.10;99.90;;;;;;4985171;28;20240;-67
2021/09/23 05:40:38;;;;;;;41.80;30.83;;;13.10;99.90;;;;;;4983951;28;20320;-67
2021/09/23 05:43:07;;;;;;;46.50;31.63;;;13.10;99.90;;;;;;4983028;28;20334;-67
2021/09/23 05:45:35;;;;;;;45.97;31.23;;;13.20;99.90;;;;;;4992784;28;20304;-66
2021/09/23 05:48:04;;;;;;;39.20;29.93;;;13.20;99.90;;;;;;4983553;28;20637;-68
2021/09/23 05:50:33;;;;;;;41.37;30.80;;;13.20;99.90;;;;;;4987576;28;20709;-67
2021/09/23 05:53:01;;;;;;;40.13;29.63;;;13.20;99.90;;;;;;4980195;28;20249;-68
2021/09/23 05:55:30;;;;;;;40.87;30.83;;;13.20;99.90;;;;;;4992289;28;20557;-68
2021/09/23 05:57:58;;;;;;;42.87;30.80;;;13.30;99.90;;;;;;5000143;28;20311;-67
2021/09/23 06:00:26;;;;;;;41.70;30.83;;;13.30;99.90;;;;;;4986800;28;20292;-67
2021/09/23 06:02:54;;;;;;;40.17;29.57;;;13.30;99.90;;;;;;4990301;28;20248;-67
2021/09/23 06:05:23;;;;;;;43.07;30.07;;;13.40;99.90;;;;;;4987794;28;20248;-67
2021/09/23 06:07:52;;;;;;;39.23;29.57;;;13.40;99.90;;;;;;4988454;28;20248;-68
2021/09/23 06:10:21;;;;;;;40.73;28.20;;;13.40;99.90;;;;;;4986364;28;20615;-67
2021/09/23 06:12:50;;;;;;;39.00;28.67;;;13.40;99.90;;;;;;4999554;28;20236;-67
2021/09/23 06:15:18;;;;;;;33.87;27.70;;;13.50;99.90;;;;;;4997274;28;20237;-67
2021/09/23 06:17:47;;;;;;;38.93;27.93;;;13.50;99.90;;;;;;4991335;28;21211;-67
2021/09/23 06:20:18;;;;;;;39.17;29.03;;;13.50;99.90;;;;;;4990220;28;20288;-67
2021/09/23 06:22:54;;;;;;;37.13;28.87;;;13.50;99.90;;;;;;4984108;28;20719;-67
2021/09/23 06:25:24;;;;;;;39.83;28.27;;;13.60;99.90;;;;;;4985377;28;20241;-66
2021/09/23 06:27:52;;;;;;;41.03;29.60;;;13.60;99.90;;;;;;4989406;28;20237;-68
2021/09/23 06:30:20;;;;;;;38.57;27.67;;;13.60;99.90;;;;;;4995054;28;20255;-67
2021/09/23 06:32:48;;;;;;;41.00;29.50;;;13.60;99.90;;;;;;4992207;28;20252;-67
2021/09/23 06:35:16;;;;;;;35.87;28.27;;;13.70;99.90;;;;;;4982538;28;20578;-67
2021/09/23 06:37:47;;;;;;;42.50;28.93;;;13.70;99.90;;;;;;4983872;28;20265;-68
2021/09/23 06:40:17;;;;;;;41.07;28.10;;;13.70;99.90;;;;;;4983836;28;20249;-67
2021/09/23 06:42:47;;;;;;;37.80;28.50;;;13.70;99.90;;;;;;4997259;28;20256;-68
2021/09/23 06:45:16;;;;;;;37.63;28.40;;;13.80;99.90;;;;;;4986590;28;20252;-67
2021/09/23 06:47:44;;;;;;;34.53;26.43;;;13.80;99.90;;;;;;4984425;28;20702;-68
2021/09/23 06:50:14;;;;;;;39.00;27.90;;;13.80;99.90;;;;;;4984306;28;20248;-67
2021/09/23 06:52:42;;;;;;;36.27;27.30;;;13.80;99.90;;;;;;4991843;28;20277;-67
2021/09/23 06:55:11;;;;;;;40.83;29.23;;;13.90;99.90;;;;;;4980146;28;20738;-68
2021/09/23 06:57:40;;;;;;;39.60;28.67;;;13.90;99.90;;;;;;4979376;28;20246;-67
2021/09/23 07:00:27;;;;;;;35.73;27.80;;;14.00;99.90;;;;;;4978729;28;20246;-68
2021/09/23 07:03:23;;;;;;;42.73;26.50;;;14.00;99.90;;;;;;4989073;28;20265;-67
2021/09/23 07:06:14;;;;;;;39.60;28.20;;;14.00;99.90;;;;;;4992947;28;20248;-67
2021/09/23 07:08:43;;;;;;;38.73;26.93;;;14.00;99.90;;;;;;5004890;28;20269;-67
2021/09/23 07:11:15;;;;;;;38.63;27.93;;;14.10;99.90;;;;;;4989357;28;20258;-68
2021/09/23 07:13:45;;;;;;;37.40;27.67;;;14.20;99.90;;;;;;5005621;28;20320;-67
2021/09/23 07:16:13;;;;;;;36.70;28.90;;;14.20;99.90;;;;;;4994258;28;20299;-68
2021/09/23 07:18:42;;;;;;;36.73;27.10;;;14.30;99.90;;;;;;4987214;28;20242;-68
2021/09/23 07:21:10;;;;;;;38.33;28.10;;;14.40;99.90;;;;;;5008933;28;20713;-68
2021/09/23 07:23:38;;;;;;;38.27;27.37;;;14.50;99.90;;;;;;4991029;28;20236;-68
2021/09/23 07:26:07;;;;;;;36.57;26.73;;;14.60;99.90;;;;;;4991025;28;20643;-68
2021/09/23 07:28:35;;;;;;;35.97;27.37;;;14.80;99.90;;;;;;4994879;28;20792;-68
2021/09/23 07:31:04;;;;;;;37.93;25.40;;;14.80;99.90;;;;;;4996572;28;20241;-67
2021/09/23 07:33:32;;;;;;;36.73;26.93;;;14.90;99.90;;;;;;4979127;28;20721;-67
2021/09/23 07:36:01;;;;;;;35.20;26.87;;;15.00;99.90;;;;;;4987031;28;20256;-67
2021/09/23 07:38:29;;;;;;;34.33;27.47;;;15.10;99.90;;;;;;4986810;28;20295;-68
2021/09/23 07:40:57;;;;;;;31.70;25.17;;;15.20;99.90;;;;;;4985534;28;20245;-67
2021/09/23 07:43:25;;;;;;;35.27;26.23;;;15.20;99.90;;;;;;4986194;28;20515;-68
2021/09/23 07:45:53;;;;;;;36.97;26.37;;;15.30;99.90;;;;;;4986506;28;20238;-68
2021/09/23 07:48:23;;;;;;;33.47;25.33;;;15.30;99.90;;;;;;4986922;28;20678;-67
2021/09/23 07:50:51;;;;;;;34.17;26.17;;;15.50;99.90;;;;;;4985362;28;20641;-67
2021/09/23 07:53:20;;;;;;;33.30;24.80;;;15.70;99.90;;;;;;4998096;28;20950;-67
2021/09/23 07:55:48;;;;;;;32.00;23.97;;;15.80;99.90;;;;;;4982588;28;20241;-67
2021/09/23 07:58:16;;;;;;;32.90;23.80;;;15.90;99.90;;;;;;4981914;28;20643;-67
2021/09/23 08:00:45;;;;;;;30.47;24.00;;;16.00;99.90;;;;;;4985741;28;20245;-68
2021/09/23 08:03:13;;;;;;;30.37;23.60;;;16.00;99.90;;;;;;4990689;28;20778;-67
2021/09/23 08:05:46;;;;;;;29.53;23.37;;;16.10;99.90;;;;;;5003147;28;20654;-67
2021/09/23 08:08:14;;;;;;;31.83;23.33;;;16.20;99.90;;;;;;4984435;28;20642;-67
2021/09/23 08:10:45;;;;;;;28.73;23.50;;;16.30;99.90;;;;;;4983097;28;20244;-67
2021/09/23 08:13:13;;;;;;;30.60;24.03;;;16.30;99.90;;;;;;4984983;28;20615;-67
2021/09/23 08:15:42;;;;;;;30.07;23.33;;;16.20;99.90;;;;;;4984910;28;20245;-67
2021/09/23 08:18:22;;;;;;;27.17;23.13;;;16.10;99.90;;;;;;4985009;28;20324;-67
2021/09/23 08:21:03;;;;;;;31.93;23.90;;;16.00;99.90;;;;;;4984635;28;20255;-67
2021/09/23 08:23:32;;;;;;;29.67;23.60;;;16.00;99.90;;;;;;4998363;28;20245;-66
2021/09/23 08:26:23;;;;;;;32.20;23.80;;;15.90;99.90;;;;;;4986113;28;20307;-67
2021/09/23 08:28:54;;;;;;;31.17;22.50;;;15.90;99.90;;;;;;4981885;28;20714;-66
2021/09/23 08:31:23;;;;;;;33.63;22.50;;;15.90;99.90;;;;;;4982772;28;20251;-67
2021/09/23 08:33:58;;;;;;;29.37;22.70;;;15.90;99.90;;;;;;4984987;28;20323;-67
2021/09/23 08:36:28;;;;;;;33.13;22.90;;;15.90;99.90;;;;;;4984264;28;20351;-67
2021/09/23 08:38:56;;;;;;;33.27;22.43;;;15.90;99.90;;;;;;4985933;28;20256;-67
2021/09/23 08:41:25;;;;;;;30.50;22.30;;;15.80;99.90;;;;;;4985374;28;20238;-66
2021/09/23 08:43:56;;;;;;;29.67;22.07;;;15.70;99.90;;;;;;4986478;28;21175;-67
2021/09/23 08:46:27;;;;;;;27.47;22.77;;;15.70;99.90;;;;;;4986342;28;20237;-67
2021/09/23 08:48:56;;;;;;;39.07;23.00;;;15.60;99.90;;;;;;5001191;28;20245;-67
2021/09/23 08:51:29;;;;;;;27.47;21.83;;;15.70;99.90;;;;;;4980881;28;20319;-67
2021/09/23 08:53:58;;;;;;;31.57;22.70;;;15.70;99.90;;;;;;4982409;28;20279;-67
2021/09/23 08:56:27;;;;;;;29.30;22.30;;;15.70;99.90;;;;;;4984099;28;20302;-67
2021/09/23 08:58:55;;;;;;;27.77;22.80;;;15.70;99.90;;;;;;4981290;28;20740;-67
2021/09/23 09:01:29;;;;;;;30.57;23.37;;;15.60;99.90;;;;;;4983626;28;20235;-67
2021/09/23 09:04:04;;;;;;;28.87;21.97;;;15.70;99.90;;;;;;5002674;28;20353;-67
2021/09/23 09:06:57;;;;;;;28.93;22.70;;;15.70;99.90;;;;;;4984622;28;20256;-67
2021/09/23 09:09:45;;;;;;;28.80;23.10;;;15.80;99.90;;;;;;4983239;28;20317;-67
2021/09/23 09:12:15;;;;;;;28.53;21.60;;;15.80;99.90;;;;;;4980200;28;20741;-67
2021/09/23 09:14:49;;;;;;;29.07;21.53;;;15.90;99.90;;;;;;4983161;28;21244;-67
2021/09/23 09:17:20;;;;;;;29.47;21.77;;;15.80;99.90;;;;;;4983062;28;20248;-67
2021/09/23 09:19:57;;;;;;;29.73;22.00;;;15.90;99.90;;;;;;4983170;28;21106;-67
2021/09/23 09:22:29;;;;;;;29.20;21.50;;;15.90;99.90;;;;;;4980808;28;20677;-67
2021/09/23 09:25:01;;;;;;;29.37;21.30;;;15.90;99.90;;;;;;4997593;28;20610;-67
2021/09/23 09:27:33;;;;;;;28.43;20.43;;;15.90;99.90;;;;;;5000377;28;20588;-67
2021/09/23 09:30:08;;;;;;;27.07;21.40;;;16.00;99.90;;;;;;4981436;28;20599;-66
2021/09/23 09:32:41;;;;;;;24.97;21.57;;;16.00;99.90;;;;;;4979505;28;20328;-67
2021/09/23 09:35:13;;;;;;;28.60;20.93;;;16.10;99.90;;;;;;5000107;28;20248;-67
2021/09/23 09:37:45;;;;;;;29.17;20.10;;;16.20;99.90;;;;;;4982928;28;20241;-67
2021/09/23 09:40:17;;;;;;;28.37;20.47;;;16.20;99.90;;;;;;4982339;28;20279;-67
2021/09/23 09:42:48;;;;;;;25.07;19.07;;;16.20;99.90;;;;;;4984481;28;20611;-67
2021/09/23 09:45:19;;;;;;;26.83;19.53;;;16.30;99.90;;;;;;4982903;28;20325;-67
2021/09/23 09:47:55;;;;;;;24.57;20.20;;;16.40;99.90;;;;;;4982562;28;20293;-67
2021/09/23 09:50:25;;;;;;;23.23;18.63;;;16.50;99.90;;;;;;4984486;28;20672;-67
2021/09/23 09:53:00;;;;;;;23.30;19.03;;;16.60;99.90;;;;;;4980100;28;20243;-67
2021/09/23 09:55:30;;;;;;;21.50;17.27;;;16.70;99.90;;;;;;4980981;28;20263;-67
2021/09/23 09:57:59;;;;;;;22.77;17.43;;;16.70;99.90;;;;;;4983155;28;20242;-67
2021/09/23 10:00:37;;;;;;;18.02;15.17;;;16.70;99.90;;;;;;3778108;28;10021812;-67
2021/09/23 10:03:06;;;;;;;22.80;18.10;;;16.70;99.90;;;;;;2402924;28;10002721;-67
2021/09/23 10:05:39;;;;;;;19.17;16.53;;;16.80;99.90;;;;;;5000234;28;21349;-67
2021/09/23 10:08:10;;;;;;;21.90;17.67;;;16.80;99.90;;;;;;4984522;28;21098;-67
2021/09/23 10:10:41;;;;;;;20.53;16.03;;;16.80;99.90;;;;;;4981397;28;20246;-67
2021/09/23 10:13:11;;;;;;;20.67;15.90;;;16.80;99.90;;;;;;4997967;28;20247;-67
2021/09/23 10:15:40;;;;;;;20.00;15.47;;;16.70;99.90;;;;;;4982443;28;20546;-67
2021/09/23 10:18:09;;;;;;;25.50;15.40;;;16.70;99.90;;;;;;4981383;28;20252;-67
2021/09/23 10:20:42;;;;;;;22.57;15.47;;;16.70;99.90;;;;;;4980190;28;20248;-67
2021/09/23 10:23:13;;;;;;;21.40;16.40;;;16.70;99.90;;;;;;4977993;28;20241;-67
2021/09/23 10:25:52;;;;;;;21.43;15.57;;;16.80;99.90;;;;;;4983821;28;20327;-67
2021/09/23 10:28:21;;;;;;;17.23;14.10;;;16.90;99.90;;;;;;4980644;28;20241;-66
2021/09/23 10:30:51;;;;;;;18.60;14.37;;;17.00;99.90;;;;;;4983072;28;20710;-66
2021/09/23 10:33:21;;;;;;;17.13;13.60;;;17.10;99.90;;;;;;4982856;28;20233;-66
2021/09/23 10:35:49;;;;;;;20.57;14.73;;;17.20;99.90;;;;;;4984161;28;20276;-66
2021/09/23 10:38:24;;;;;;;19.60;14.63;;;17.20;99.90;;;;;;4982406;28;20338;-66
2021/09/23 10:40:52;;;;;;;17.90;13.87;;;17.40;99.90;;;;;;5000039;28;20300;-66
2021/09/23 10:43:21;;;;;;;16.63;13.10;;;17.40;99.90;;;;;;4979259;28;20343;-66
2021/09/23 10:45:55;;;;;;;16.33;13.23;;;17.60;99.90;;;;;;4982018;28;20296;-67
2021/09/23 10:48:27;;;;;;;16.53;12.57;;;17.70;99.90;;;;;;4980978;28;20291;-66
2021/09/23 10:50:56;;;;;;;18.67;13.23;;;17.80;99.90;;;;;;4987232;28;20241;-66
2021/09/23 10:53:25;;;;;;;14.50;12.63;;;17.80;99.90;;;;;;4999625;28;20938;-66
2021/09/23 10:56:08;;;;;;;16.73;12.50;;;17.70;99.90;;;;;;4983848;28;20246;-66
2021/09/23 10:58:43;;;;;;;15.73;11.77;;;17.60;99.90;;;;;;4998398;28;20603;-66
2021/09/23 11:01:22;;;;;;;14.23;11.57;;;17.50;99.90;;;;;;4984719;28;20738;-66
2021/09/23 11:03:51;;;;;;;16.43;11.70;;;17.40;99.90;;;;;;4982265;28;20242;-66
2021/09/23 11:06:31;;;;;;;13.37;10.60;;;17.20;99.90;;;;;;4984225;28;20247;-66
2021/09/23 11:09:17;;;;;;;17.40;11.50;;;17.10;99.90;;;;;;4993975;28;20241;-66
2021/09/23 11:11:52;;;;;;;15.17;11.83;;;17.10;99.90;;;;;;4987332;28;20238;-66
2021/09/23 11:14:22;;;;;;;17.07;11.53;;;17.10;99.90;;;;;;4975742;28;20589;-66
2021/09/23 11:16:52;;;;;;;15.70;11.20;;;17.00;99.90;;;;;;4975189;28;20381;-66
2021/09/23 11:19:22;;;;;;;12.33;9.40;;;17.00;99.90;;;;;;4992245;28;20244;-66
2021/09/23 11:21:53;;;;;;;14.43;9.57;;;17.00;99.90;;;;;;4975225;28;20253;-66
2021/09/23 11:24:26;;;;;;;12.30;9.93;;;17.00;99.90;;;;;;4974864;28;20797;-66
2021/09/23 11:26:56;;;;;;;12.50;10.17;;;16.90;99.90;;;;;;4975727;28;20238;-66
2021/09/23 11:29:25;;;;;;;12.93;10.13;;;16.90;99.90;;;;;;4978042;28;20475;-66
2021/09/23 11:31:56;;;;;;;13.37;9.43;;;16.90;99.90;;;;;;4976600;28;20333;-66
2021/09/23 11:34:30;;;;;;;13.90;9.93;;;16.90;99.90;;;;;;4980330;28;20239;-66
2021/09/23 11:37:01;;;;;;;12.97;9.37;;;16.90;99.90;;;;;;4999235;28;20313;-66
2021/09/23 11:39:32;;;;;;;14.77;9.80;;;16.90;99.90;;;;;;4983870;28;20244;-66
2021/09/23 11:42:11;;;;;;;14.57;9.17;;;16.90;99.90;;;;;;4984047;28;20355;-66
2021/09/23 11:44:41;;;;;;;12.97;9.77;;;16.90;99.90;;;;;;4999899;28;20248;-66
2021/09/23 11:47:25;;;;;;;12.27;9.10;;;16.90;99.90;;;;;;4987960;28;20230;-66
2021/09/23 11:49:57;;;;;;;12.43;9.47;;;16.90;99.90;;;;;;4987964;28;20757;-66
2021/09/23 11:52:32;;;;;;;13.97;9.37;;;17.00;99.90;;;;;;4996698;28;20247;-66
2021/09/23 11:55:03;;;;;;;13.13;9.80;;;16.90;99.90;;;;;;4982845;28;21138;-66
2021/09/23 11:57:32;;;;;;;12.87;9.17;;;16.90;99.90;;;;;;4983202;28;20281;-66
2021/09/23 12:00:02;;;;;;;11.90;8.70;;;16.90;99.90;;;;;;4983931;28;20614;-66
2021/09/23 12:02:53;;;;;;;12.77;9.70;;;17.00;99.90;;;;;;4984265;28;20571;-66
2021/09/23 12:05:30;;;;;;;11.57;8.87;;;17.00;99.90;;;;;;4981830;28;20234;-66
2021/09/23 12:08:13;;;;;;;11.03;8.77;;;17.10;99.90;;;;;;4983588;28;20333;-67
2021/09/23 12:10:50;;;;;;;10.27;8.00;;;17.00;99.90;;;;;;4984785;28;20764;-66
2021/09/23 12:13:35;;;;;;;8.87;7.57;;;17.00;99.90;;;;;;4978365;28;20277;-66
2021/09/23 12:16:06;;;;;;;12.03;8.03;;;17.00;99.90;;;;;;4981668;28;20297;-66
2021/09/23 12:18:35;;;;;;;9.13;7.30;;;17.00;99.90;;;;;;4962894;28;20648;-66
2021/09/23 12:21:07;;;;;;;9.63;6.20;;;17.00;99.90;;;;;;4965359;28;20641;-66
2021/09/23 12:23:39;;;;;;;9.53;6.87;;;16.90;99.90;;;;;;4976580;28;20253;-66
2021/09/23 12:26:20;;;;;;;10.97;6.10;;;16.80;99.90;;;;;;4963965;28;20264;-66
2021/09/23 12:28:57;;;;;;;8.23;6.03;;;16.70;99.90;;;;;;4961792;28;21503;-66
2021/09/23 12:31:38;;;;;;;10.13;6.30;;;16.60;99.90;;;;;;4979859;28;20237;-66
2021/09/23 12:34:13;;;;;;;12.47;6.13;;;16.50;99.90;;;;;;4980079;28;20233;-67
2021/09/23 12:36:44;;;;;;;9.20;6.00;;;16.50;99.90;;;;;;4994510;28;20360;-66
2021/09/23 12:39:19;;;;;;;8.60;6.20;;;16.50;99.90;;;;;;4979085;28;20602;-67
2021/09/23 12:42:15;;;;;;;7.73;5.77;;;16.40;99.90;;;;;;4980416;28;20253;-67
2021/09/23 12:44:54;;;;;;;8.23;5.47;;;16.40;99.90;;;;;;4949664;28;20244;-67
2021/09/23 12:47:27;;;;;;;9.63;5.77;;;16.40;99.90;;;;;;4978782;28;20292;-66
2021/09/23 12:50:01;;;;;;;10.33;5.30;;;16.30;99.90;;;;;;4966097;28;20426;-67